createdAt,value
2022-12-08T00:02:34.313Z,98780.00
2022-12-08T00:12:04.017Z,98780.00
2022-12-08T00:14:49.934Z,98774.00
2022-12-08T00:17:29.088Z,98777.00
2022-12-08T00:20:18.055Z,98784.00
2022-12-08T00:22:56.957Z,98767.00
2022-12-08T00:25:45.315Z,98773.00
2022-12-08T00:28:32.116Z,98777.00
2022-12-08T00:31:14.054Z,98772.00
2022-12-08T00:33:56.600Z,98766.00
2022-12-08T00:36:42.556Z,98767.00
2022-12-08T00:39:24.858Z,98765.00
2022-12-08T00:42:12.610Z,98769.00
2022-12-08T00:44:54.824Z,98766.00
2022-12-08T00:47:37.173Z,98751.00
2022-12-08T00:50:22.569Z,98744.00
2022-12-08T00:53:01.734Z,98752.00
2022-12-08T00:55:47.253Z,98751.00
2022-12-08T00:58:32.309Z,98751.00
2022-12-08T01:01:17.952Z,98756.00
2022-12-08T01:03:56.971Z,98753.00
2022-12-08T01:06:43.927Z,98768.00
2022-12-08T01:09:25.775Z,98758.00
2022-12-08T01:12:10.965Z,98762.00
2022-12-08T01:14:55.022Z,98755.00
2022-12-08T01:17:38.936Z,98754.00
2022-12-08T01:20:24.319Z,98757.00
2022-12-08T01:23:03.635Z,98755.00
2022-12-08T01:25:30.508Z,98746.00
2022-12-08T01:27:57.290Z,98760.00
2022-12-08T01:30:24.364Z,98756.00
2022-12-08T01:32:51.216Z,98763.00
2022-12-08T01:35:18.167Z,98759.00
2022-12-08T01:37:44.994Z,98760.00
2022-12-08T01:40:11.995Z,98765.00
2022-12-08T01:42:38.810Z,98762.00
2022-12-08T01:45:33.184Z,98758.00
2022-12-08T01:48:09.606Z,98759.00
2022-12-08T01:50:39.853Z,98756.00
2022-12-08T01:53:19.765Z,98762.00
2022-12-08T01:55:55.275Z,98769.00
2022-12-08T01:58:37.600Z,98767.00
2022-12-08T02:01:05.045Z,98767.00
2022-12-08T02:03:40.741Z,98758.00
2022-12-08T02:06:08.795Z,98747.00
2022-12-08T02:08:40.224Z,98760.00
2022-12-08T02:11:11.650Z,98753.00
2022-12-08T02:13:41.453Z,98751.00
2022-12-08T02:16:45.083Z,98747.00
2022-12-08T02:19:31.748Z,98752.00
2022-12-08T02:22:14.829Z,98740.00
2022-12-08T02:24:54.917Z,98741.00
2022-12-08T02:27:50.894Z,98743.00
2022-12-08T02:30:44.992Z,98736.00
2022-12-08T02:33:52.434Z,98744.00
2022-12-08T02:37:07.159Z,98738.00
2022-12-08T02:39:59.811Z,98738.00
2022-12-08T02:42:39.782Z,98733.00
2022-12-08T02:45:59.372Z,98731.00
2022-12-08T02:48:30.436Z,98719.00
2022-12-08T02:50:57.300Z,98725.00
2022-12-08T02:53:24.125Z,98709.00
2022-12-08T02:56:23.393Z,98707.00
2022-12-08T02:59:33.815Z,98709.00
2022-12-08T03:02:12.710Z,98699.00
2022-12-08T03:04:51.615Z,98701.00
2022-12-08T03:07:40.642Z,98692.00
2022-12-08T03:10:19.512Z,98693.00
2022-12-08T03:12:57.395Z,98691.00
2022-12-08T03:15:24.292Z,98684.00
2022-12-08T03:17:58.330Z,98695.00
2022-12-08T03:20:28.673Z,98693.00
2022-12-08T03:23:00.125Z,98693.00
2022-12-08T03:25:33.594Z,98686.00
2022-12-08T03:28:00.974Z,98687.00
2022-12-08T03:30:32.981Z,98697.00
2022-12-08T03:33:09.932Z,98690.00
2022-12-08T03:35:40.583Z,98685.00
2022-12-08T03:38:11.893Z,98675.00
2022-12-08T03:40:40.244Z,98667.00
2022-12-08T03:43:07.483Z,98672.00
2022-12-08T03:45:34.389Z,98666.00
2022-12-08T03:48:01.313Z,98666.00
2022-12-08T03:50:28.374Z,98657.00
2022-12-08T03:52:55.215Z,98662.00
2022-12-08T03:55:22.068Z,98650.00
2022-12-08T03:57:48.929Z,98644.00
2022-12-08T04:00:17.028Z,98645.00
2022-12-08T04:02:44.138Z,98652.00
2022-12-08T04:05:11.282Z,98649.00
2022-12-08T04:07:38.156Z,98647.00
2022-12-08T04:10:06.437Z,98635.00
2022-12-08T04:12:33.468Z,98629.00
2022-12-08T04:15:00.240Z,98623.00
2022-12-08T04:17:27.136Z,98630.00
2022-12-08T04:19:53.954Z,98628.00
2022-12-08T04:22:20.802Z,98627.00
2022-12-08T04:24:47.777Z,98631.00
2022-12-08T04:27:14.603Z,98626.00
2022-12-08T04:29:41.494Z,98628.00
2022-12-08T04:32:08.322Z,98606.00
2022-12-08T04:34:35.134Z,98624.00
2022-12-08T04:37:01.982Z,98612.00
2022-12-08T04:39:28.814Z,98622.00
2022-12-08T04:41:55.669Z,98623.00
2022-12-08T04:44:22.526Z,98617.00
2022-12-08T04:46:49.385Z,98617.00
2022-12-08T04:49:16.254Z,98615.00
2022-12-08T04:51:43.121Z,98608.00
2022-12-08T04:54:09.943Z,98610.00
2022-12-08T04:56:37.434Z,98615.00
2022-12-08T04:59:04.302Z,98617.00
2022-12-08T05:01:31.243Z,98611.00
2022-12-08T05:03:58.059Z,98601.00
2022-12-08T05:06:24.987Z,98597.00
2022-12-08T05:08:51.894Z,98602.00
2022-12-08T05:11:19.671Z,98598.00
2022-12-08T05:13:46.513Z,98606.00
2022-12-08T05:16:16.090Z,98610.00
2022-12-08T05:18:43.773Z,98610.00
2022-12-08T05:21:10.945Z,98612.00
2022-12-08T05:23:37.898Z,98613.00
2022-12-08T05:26:04.943Z,98622.00
2022-12-08T05:28:41.294Z,98614.00
2022-12-08T05:31:09.709Z,98604.00
2022-12-08T05:33:36.614Z,98609.00
2022-12-08T05:36:03.653Z,98605.00
2022-12-08T05:38:30.566Z,98605.00
2022-12-08T05:40:57.410Z,98606.00
2022-12-08T05:43:24.551Z,98606.00
2022-12-08T05:45:51.426Z,98605.00
2022-12-08T05:48:18.347Z,98604.00
2022-12-08T05:50:50.073Z,98615.00
2022-12-08T05:53:18.520Z,98601.00
2022-12-08T05:55:46.590Z,98594.00
2022-12-08T05:58:19.492Z,98592.00
2022-12-08T06:00:48.298Z,98597.00
2022-12-08T06:03:18.168Z,98590.00
2022-12-08T06:05:46.687Z,98588.00
2022-12-08T06:08:14.535Z,98590.00
2022-12-08T06:10:44.467Z,98595.00
2022-12-08T06:13:11.425Z,98587.00
2022-12-08T06:15:39.508Z,98593.00
2022-12-08T06:18:07.738Z,98584.00
2022-12-08T06:20:34.805Z,98594.00
2022-12-08T06:23:02.105Z,98588.00
2022-12-08T06:25:29.124Z,98596.00
2022-12-08T06:27:55.986Z,98590.00
2022-12-08T06:30:22.909Z,98590.00
2022-12-08T06:32:49.789Z,98591.00
2022-12-08T06:35:16.789Z,98591.00
2022-12-08T06:37:43.633Z,98598.00
2022-12-08T06:40:11.101Z,98595.00
2022-12-08T06:42:43.659Z,98592.00
2022-12-08T06:45:12.957Z,98597.00
2022-12-08T06:47:40.116Z,98588.00
2022-12-08T06:50:08.868Z,98585.00
2022-12-08T06:52:40.852Z,98592.00
2022-12-08T06:55:29.250Z,98593.00
2022-12-08T06:57:59.719Z,98597.00
2022-12-08T07:00:26.550Z,98593.00
2022-12-08T07:02:53.486Z,98594.00
2022-12-08T07:05:20.421Z,98595.00
2022-12-08T07:07:47.238Z,98585.00
2022-12-08T07:10:14.060Z,98598.00
2022-12-08T07:12:40.870Z,98598.00
2022-12-08T07:15:13.861Z,98600.00
2022-12-08T07:18:00.296Z,98595.00
2022-12-08T07:20:27.843Z,98603.00
2022-12-08T07:22:55.113Z,98596.00
2022-12-08T07:25:22.406Z,98599.00
2022-12-08T07:27:51.435Z,98598.00
2022-12-08T07:30:18.475Z,98608.00
2022-12-08T07:32:45.551Z,98605.00
2022-12-08T07:35:12.675Z,98612.00
2022-12-08T07:37:40.875Z,98612.00
2022-12-08T07:40:10.088Z,98612.00
2022-12-08T07:42:37.188Z,98607.00
2022-12-08T07:45:04.402Z,98616.00
2022-12-08T07:47:31.262Z,98612.00
2022-12-08T07:49:58.161Z,98618.00
2022-12-08T07:52:25.071Z,98615.00
2022-12-08T07:54:51.934Z,98606.00
2022-12-08T07:57:18.803Z,98609.00
2022-12-08T07:59:45.682Z,98613.00
2022-12-08T08:02:24.921Z,98607.00
2022-12-08T08:04:53.394Z,98597.00
2022-12-08T08:07:20.277Z,98600.00
2022-12-08T08:09:47.122Z,98598.00
2022-12-08T08:12:30.679Z,98594.00
2022-12-08T08:15:00.138Z,98603.00
2022-12-08T08:17:27.510Z,98597.00
2022-12-08T08:19:54.504Z,98597.00
2022-12-08T08:22:21.365Z,98594.00
2022-12-08T08:24:48.205Z,98599.00
2022-12-08T08:27:15.248Z,98599.00
2022-12-08T08:29:42.092Z,98594.00
2022-12-08T08:32:09.002Z,98594.00
2022-12-08T08:34:35.955Z,98591.00
2022-12-08T08:37:02.820Z,98594.00
2022-12-08T08:39:31.744Z,98590.00
2022-12-08T08:41:58.795Z,98588.00
2022-12-08T08:44:25.657Z,98591.00
2022-12-08T08:46:52.644Z,98593.00
2022-12-08T08:49:20.074Z,98586.00
2022-12-08T08:51:47.208Z,98578.00
2022-12-08T08:54:14.214Z,98577.00
2022-12-08T08:56:41.310Z,98572.00
2022-12-08T08:59:09.921Z,98577.00
2022-12-08T09:01:36.770Z,98564.00
2022-12-08T09:04:03.831Z,98565.00
2022-12-08T09:06:30.906Z,98556.00
2022-12-08T09:08:57.846Z,98561.00
2022-12-08T09:11:24.781Z,98565.00
2022-12-08T09:13:53.961Z,98556.00
2022-12-08T09:16:22.629Z,98558.00
2022-12-08T09:18:49.941Z,98557.00
2022-12-08T09:21:23.700Z,98554.00
2022-12-08T09:23:56.840Z,98560.00
2022-12-08T09:26:24.401Z,98565.00
2022-12-08T09:28:52.570Z,98557.00
2022-12-08T09:31:21.830Z,98560.00
2022-12-08T09:33:53.275Z,98562.00
2022-12-08T09:36:21.031Z,98553.00
2022-12-08T09:38:49.049Z,98553.00
2022-12-08T09:41:39.258Z,98553.00
2022-12-08T09:44:44.172Z,98543.00
2022-12-08T09:47:22.904Z,98549.00
2022-12-08T09:50:19.607Z,98543.00
2022-12-08T09:53:08.414Z,98538.00
2022-12-08T09:56:12.319Z,98538.00
2022-12-08T09:59:06.170Z,98529.00
2022-12-08T10:01:41.564Z,98536.00
2022-12-08T10:04:28.925Z,98529.00
2022-12-08T10:07:10.805Z,98524.00
2022-12-08T10:10:03.713Z,98513.00
2022-12-08T10:12:36.498Z,98505.00
2022-12-08T10:15:44.445Z,98510.00
2022-12-08T10:18:26.993Z,98496.00
2022-12-08T10:21:00.403Z,98498.00
2022-12-08T10:23:39.106Z,98495.00
2022-12-08T10:26:13.126Z,98510.00
2022-12-08T10:28:44.733Z,98502.00
2022-12-08T10:31:25.363Z,98501.00
2022-12-08T10:34:01.283Z,98496.00
2022-12-08T10:36:56.557Z,98495.00
2022-12-08T10:39:35.672Z,98504.00
2022-12-08T10:42:14.674Z,98498.00
2022-12-08T10:45:10.469Z,98489.00
2022-12-08T10:47:45.281Z,98482.00
2022-12-08T10:50:20.170Z,98472.00
2022-12-08T10:53:22.658Z,98477.00
2022-12-08T10:55:52.958Z,98467.00
2022-12-08T10:58:36.749Z,98474.00
2022-12-08T11:01:20.569Z,98461.00
2022-12-08T11:03:57.006Z,98460.00
2022-12-08T11:06:40.504Z,98457.00
2022-12-08T11:09:36.285Z,98449.00
2022-12-08T11:12:15.848Z,98443.00
2022-12-08T11:14:48.283Z,98440.00
2022-12-08T11:17:22.335Z,98437.00
2022-12-08T11:20:09.601Z,98425.00
2022-12-08T11:22:50.711Z,98432.00
2022-12-08T11:25:29.740Z,98417.00
2022-12-08T11:28:01.841Z,98415.00
2022-12-08T11:30:47.809Z,98412.00
2022-12-08T11:33:28.536Z,98416.00
2022-12-08T11:36:05.783Z,98415.00
2022-12-08T11:38:35.359Z,98418.00
2022-12-08T11:41:23.718Z,98399.00
2022-12-08T11:43:58.955Z,98398.00
2022-12-08T11:46:43.488Z,98403.00
2022-12-08T11:49:14.236Z,98410.00
2022-12-08T11:52:05.572Z,98395.00
2022-12-08T11:55:02.232Z,98390.00
2022-12-08T11:57:30.308Z,98388.00
2022-12-08T11:59:58.695Z,98392.00
2022-12-08T12:02:45.369Z,98372.00
2022-12-08T12:06:09.096Z,98383.00
2022-12-08T12:08:35.250Z,98368.00
2022-12-08T12:11:37.179Z,98366.00
2022-12-08T12:14:51.089Z,98372.00
2022-12-08T12:18:03.660Z,98367.00
2022-12-08T12:20:47.017Z,98365.00
2022-12-08T12:23:19.725Z,98368.00
2022-12-08T12:26:02.156Z,98358.00
2022-12-08T12:28:42.310Z,98361.00
2022-12-08T12:31:15.840Z,98357.00
2022-12-08T12:33:46.570Z,98363.00
2022-12-08T12:36:14.896Z,98356.00
2022-12-08T12:39:01.573Z,98351.00
2022-12-08T12:41:36.956Z,98358.00
2022-12-08T12:44:25.188Z,98359.00
2022-12-08T12:46:53.241Z,98354.00
2022-12-08T12:49:41.143Z,98340.00
2022-12-08T12:52:16.996Z,98336.00
2022-12-08T12:55:10.811Z,98336.00
2022-12-08T12:57:58.668Z,98339.00
2022-12-08T13:00:28.001Z,98331.00
2022-12-08T13:02:58.997Z,98330.00
2022-12-08T13:05:34.867Z,98329.00
2022-12-08T13:08:27.417Z,98338.00
2022-12-08T13:11:04.076Z,98334.00
2022-12-08T13:13:31.958Z,98332.00
2022-12-08T13:16:18.551Z,98331.00
2022-12-08T13:18:56.015Z,98324.00
2022-12-08T13:21:25.510Z,98323.00
2022-12-08T13:24:14.591Z,98323.00
2022-12-08T13:26:47.524Z,98327.00
2022-12-08T13:29:26.525Z,98327.00
2022-12-08T13:31:59.788Z,98324.00
2022-12-08T13:34:45.565Z,98326.00
2022-12-08T13:37:12.429Z,98321.00
2022-12-08T13:39:39.146Z,98314.00
2022-12-08T13:42:38.138Z,98323.00
2022-12-08T13:55:13.617Z,98321.00
2022-12-08T13:57:28.729Z,98316.00
2022-12-08T14:00:04.014Z,98311.00
2022-12-08T14:02:47.099Z,98304.00
2022-12-08T14:05:20.340Z,98306.00
2022-12-08T14:07:55.441Z,98305.00
2022-12-08T14:10:27.357Z,98302.00
2022-12-08T14:13:05.385Z,98303.00
2022-12-08T14:15:38.148Z,98299.00
2022-12-08T14:18:21.256Z,98309.00
2022-12-08T14:21:21.682Z,98301.00
2022-12-08T14:23:48.931Z,98290.00
2022-12-08T14:26:15.813Z,98297.00
2022-12-08T14:28:47.094Z,98286.00
2022-12-08T14:31:14.781Z,98299.00
2022-12-08T14:33:42.909Z,98292.00
2022-12-08T14:36:11.126Z,98297.00
2022-12-08T14:38:38.455Z,98295.00
2022-12-08T14:41:11.897Z,98290.00
2022-12-08T14:43:40.836Z,98293.00
2022-12-08T14:46:23.177Z,98286.00
2022-12-08T14:48:50.257Z,98288.00
2022-12-08T14:51:29.556Z,98292.00
2022-12-08T14:54:15.218Z,98295.00
2022-12-08T14:56:53.343Z,98307.00
2022-12-08T14:59:30.672Z,98293.00
2022-12-08T15:02:16.155Z,98289.00
2022-12-08T15:04:48.140Z,98294.00
2022-12-08T15:07:21.234Z,98288.00
2022-12-08T15:10:07.745Z,98303.00
2022-12-08T15:12:34.975Z,98291.00
2022-12-08T15:15:17.690Z,98299.00
2022-12-08T15:18:17.308Z,98302.00
2022-12-08T15:20:47.734Z,98293.00
2022-12-08T15:23:34.019Z,98304.00
2022-12-08T15:26:00.974Z,98304.00
2022-12-08T15:28:30.495Z,98299.00
2022-12-08T15:30:58.622Z,98301.00
2022-12-08T15:33:26.917Z,98291.00
2022-12-08T15:35:54.140Z,98282.00
2022-12-08T15:38:26.838Z,98292.00
2022-12-08T15:40:55.697Z,98283.00
2022-12-08T15:43:23.285Z,98281.00
2022-12-08T15:45:59.916Z,98284.00
2022-12-08T15:48:30.432Z,98284.00
2022-12-08T15:50:58.422Z,98280.00
2022-12-08T15:53:25.679Z,98270.00
2022-12-08T15:56:25.711Z,98269.00
2022-12-08T15:58:56.511Z,98272.00
2022-12-08T16:01:42.961Z,98259.00
2022-12-08T16:16:30.283Z,98265.00
2022-12-08T16:19:46.307Z,98259.00
2022-12-08T16:25:24.919Z,98261.00
2022-12-08T16:28:05.334Z,98267.00
2022-12-08T16:30:36.199Z,98258.00
2022-12-08T16:34:12.554Z,98250.00
2022-12-08T16:36:41.233Z,98262.00
2022-12-08T16:39:08.776Z,98269.00
2022-12-08T16:41:53.954Z,98273.00
2022-12-08T16:44:20.826Z,98274.00
2022-12-08T16:46:47.674Z,98267.00
2022-12-08T16:49:15.552Z,98279.00
2022-12-08T16:51:43.713Z,98272.00
2022-12-08T16:54:10.765Z,98261.00
2022-12-08T16:58:06.502Z,98254.00
2022-12-08T17:00:37.549Z,98257.00
2022-12-08T17:03:07.912Z,98259.00
2022-12-08T17:05:36.053Z,98259.00
2022-12-08T17:08:02.986Z,98252.00
2022-12-08T17:10:34.402Z,98248.00
2022-12-08T17:13:02.439Z,98263.00
2022-12-08T17:15:29.543Z,98253.00
2022-12-08T17:17:56.597Z,98262.00
2022-12-08T17:20:28.006Z,98266.00
2022-12-08T17:22:57.808Z,98272.00
2022-12-08T17:25:28.052Z,98263.00
2022-12-08T17:27:56.184Z,98274.00
2022-12-08T17:30:23.486Z,98260.00
2022-12-08T17:32:52.664Z,98281.00
2022-12-08T17:35:19.787Z,98273.00
2022-12-08T17:37:46.753Z,98280.00
2022-12-08T17:40:13.667Z,98269.00
2022-12-08T17:42:40.817Z,98263.00
2022-12-08T17:45:09.116Z,98272.00
2022-12-08T17:47:36.903Z,98272.00
2022-12-08T17:50:05.976Z,98258.00
2022-12-08T17:52:33.221Z,98256.00
2022-12-08T17:55:00.081Z,98249.00
2022-12-08T17:57:26.927Z,98252.00
2022-12-08T17:59:53.927Z,98262.00
2022-12-08T18:02:21.163Z,98256.00
2022-12-08T18:04:48.029Z,98264.00
2022-12-08T18:07:14.913Z,98265.00
2022-12-08T18:09:42.016Z,98266.00
2022-12-08T18:12:08.924Z,98273.00
2022-12-08T18:14:35.887Z,98272.00
2022-12-08T18:17:02.851Z,98283.00
2022-12-08T18:19:29.826Z,98271.00
2022-12-08T18:21:56.698Z,98266.00
2022-12-08T18:24:25.014Z,98270.00
2022-12-08T18:26:52.583Z,98262.00
2022-12-08T18:29:22.354Z,98261.00
2022-12-08T18:31:50.344Z,98274.00
2022-12-08T18:34:19.013Z,98274.00
2022-12-08T18:36:46.527Z,98284.00
2022-12-08T18:39:23.808Z,98288.00
2022-12-08T18:41:52.639Z,98284.00
2022-12-08T18:44:19.564Z,98280.00
2022-12-08T18:46:46.775Z,98269.00
2022-12-08T18:49:17.744Z,98267.00
2022-12-08T18:51:46.225Z,98266.00
2022-12-08T18:54:13.606Z,98256.00
2022-12-08T18:56:40.509Z,98255.00
2022-12-08T18:59:11.485Z,98253.00
2022-12-08T19:01:40.785Z,98255.00
2022-12-08T19:04:28.029Z,98243.00
2022-12-08T19:06:55.821Z,98237.00
2022-12-08T19:09:22.860Z,98240.00
2022-12-08T19:11:50.088Z,98238.00
2022-12-08T19:14:17.777Z,98236.00
2022-12-08T19:16:47.001Z,98231.00
2022-12-08T19:19:13.919Z,98235.00
2022-12-08T19:21:46.309Z,98243.00
2022-12-08T19:24:13.649Z,98246.00
2022-12-08T19:26:40.586Z,98235.00
2022-12-08T19:29:08.286Z,98249.00
2022-12-08T19:31:35.558Z,98231.00
2022-12-08T19:34:02.629Z,98236.00
2022-12-08T19:36:35.297Z,98226.00
2022-12-08T19:39:23.014Z,98227.00
2022-12-08T19:42:09.659Z,98219.00
2022-12-08T19:44:55.035Z,98221.00
2022-12-08T19:47:27.445Z,98227.00
2022-12-08T19:50:15.805Z,98219.00
2022-12-08T19:52:43.064Z,98221.00
2022-12-08T19:55:11.678Z,98221.00
2022-12-08T19:57:38.733Z,98221.00
2022-12-08T20:00:08.222Z,98218.00
2022-12-08T20:02:36.972Z,98226.00
2022-12-08T20:05:06.334Z,98221.00
2022-12-08T20:07:34.390Z,98218.00
2022-12-08T20:10:04.507Z,98217.00
2022-12-08T20:12:31.753Z,98215.00
2022-12-08T20:14:58.754Z,98216.00
2022-12-08T20:17:25.630Z,98212.00
2022-12-08T20:19:52.625Z,98218.00
2022-12-08T20:22:19.518Z,98213.00
2022-12-08T20:24:51.917Z,98209.00
2022-12-08T20:27:23.829Z,98218.00
2022-12-08T20:29:52.657Z,98216.00
2022-12-08T20:32:19.483Z,98214.00
2022-12-08T20:34:46.348Z,98214.00
2022-12-08T20:37:13.262Z,98205.00
2022-12-08T20:39:40.259Z,98207.00
2022-12-08T20:42:07.411Z,98208.00
2022-12-08T20:44:34.416Z,98207.00
2022-12-08T20:47:01.526Z,98213.00
2022-12-08T20:49:34.229Z,98212.00
2022-12-08T20:52:01.694Z,98223.00
2022-12-08T20:54:28.650Z,98224.00
2022-12-08T20:56:55.586Z,98223.00
2022-12-08T20:59:22.494Z,98218.00
2022-12-08T21:01:49.690Z,98220.00
2022-12-08T21:04:16.816Z,98214.00
2022-12-08T21:06:45.222Z,98215.00
2022-12-08T21:09:12.551Z,98216.00
2022-12-08T21:11:39.858Z,98214.00
2022-12-08T21:14:07.134Z,98209.00
2022-12-08T21:17:05.692Z,98217.00
2022-12-08T21:19:35.108Z,98224.00
2022-12-08T21:22:04.756Z,98222.00
2022-12-08T21:24:36.996Z,98232.00
2022-12-08T21:27:06.982Z,98207.00
2022-12-08T21:29:34.316Z,98220.00
2022-12-08T21:32:01.391Z,98213.00
2022-12-08T21:34:34.192Z,98214.00
2022-12-08T21:37:02.455Z,98222.00
2022-12-08T21:39:29.536Z,98221.00
2022-12-08T21:42:14.952Z,98214.00
2022-12-08T21:44:42.059Z,98217.00
2022-12-08T21:47:13.557Z,98209.00
2022-12-08T21:49:44.193Z,98204.00
2022-12-08T21:52:11.643Z,98202.00
2022-12-08T21:54:38.713Z,98204.00
2022-12-08T21:57:05.621Z,98189.00
2022-12-08T21:59:33.123Z,98200.00
2022-12-08T22:02:00.241Z,98181.00
2022-12-08T22:04:27.698Z,98184.00
2022-12-08T22:06:57.494Z,98192.00
2022-12-08T22:09:24.656Z,98181.00
2022-12-08T22:11:53.977Z,98180.00
2022-12-08T22:14:20.823Z,98190.00
2022-12-08T22:16:47.884Z,98192.00
2022-12-08T22:19:14.913Z,98185.00
2022-12-08T22:21:42.963Z,98190.00
2022-12-08T22:24:10.229Z,98185.00
2022-12-08T22:26:37.139Z,98190.00
2022-12-08T22:29:04.104Z,98188.00
2022-12-08T22:31:31.475Z,98191.00
2022-12-08T22:33:59.809Z,98185.00
2022-12-08T22:36:28.224Z,98178.00
2022-12-08T22:38:55.432Z,98177.00
2022-12-08T22:41:23.005Z,98164.00
2022-12-08T22:43:51.280Z,98168.00
2022-12-08T22:46:25.246Z,98164.00
2022-12-08T22:48:54.504Z,98164.00
2022-12-08T22:51:21.619Z,98162.00
2022-12-08T22:53:48.656Z,98157.00
2022-12-08T22:56:16.720Z,98161.00
2022-12-08T22:58:44.499Z,98148.00
2022-12-08T23:01:31.256Z,98153.00
2022-12-08T23:04:00.630Z,98153.00
2022-12-08T23:06:29.648Z,98156.00
2022-12-08T23:08:57.505Z,98152.00
2022-12-08T23:11:29.971Z,98142.00
2022-12-08T23:14:02.687Z,98153.00
2022-12-08T23:16:29.675Z,98149.00
2022-12-08T23:18:56.725Z,98150.00
2022-12-08T23:21:24.004Z,98141.00
2022-12-08T23:23:51.966Z,98142.00
2022-12-08T23:26:26.732Z,98144.00
2022-12-08T23:28:55.088Z,98149.00
2022-12-08T23:31:23.543Z,98137.00
2022-12-08T23:33:51.914Z,98145.00
2022-12-08T23:36:20.892Z,98145.00
2022-12-08T23:38:48.511Z,98126.00
2022-12-08T23:41:16.144Z,98123.00
2022-12-08T23:43:51.928Z,98128.00
2022-12-08T23:46:22.537Z,98131.00
2022-12-08T23:48:51.370Z,98127.00
2022-12-08T23:51:19.623Z,98120.00
2022-12-08T23:53:47.048Z,98112.00
2022-12-08T23:56:17.427Z,98110.00
2022-12-08T23:58:45.531Z,98106.00
